sensor_id;sensor_type;location;lat;lon;timestamp;P1;durP1;ratioP1;P2;durP2;ratioP2
24663;SDS011;12791;50.992;13.788;2022-08-01T00:00:14;2.17;;;2.05;;
24663;SDS011;12791;50.992;13.788;2022-08-01T00:02:41;1.75;;;1.65;;
24663;SDS011;12791;50.992;13.788;2022-08-01T00:05:08;1.60;;;1.60;;
24663;SDS011;12791;50.992;13.788;2022-08-01T00:07:35;1.60;;;1.55;;
24663;SDS011;12791;50.992;13.788;2022-08-01T00:10:02;1.48;;;1.45;;
24663;SDS011;12791;50.992;13.788;2022-08-01T00:12:29;1.20;;;1.20;;
24663;SDS011;12791;50.992;13.788;2022-08-01T00:14:56;1.42;;;1.38;;
24663;SDS011;12791;50.992;13.788;2022-08-01T00:17:24;1.17;;;1.17;;
24663;SDS011;12791;50.992;13.788;2022-08-01T00:19:51;1.00;;;1.00;;
24663;SDS011;12791;50.992;13.788;2022-08-01T00:22:18;1.13;;;1.10;;
24663;SDS011;12791;50.992;13.788;2022-08-01T00:24:44;2.83;;;1.65;;
24663;SDS011;12791;50.992;13.788;2022-08-01T00:27:11;1.50;;;1.48;;
24663;SDS011;12791;50.992;13.788;2022-08-01T00:29:37;1.40;;;1.40;;
24663;SDS011;12791;50.992;13.788;2022-08-01T00:32:04;1.70;;;1.60;;
24663;SDS011;12791;50.992;13.788;2022-08-01T00:34:32;1.45;;;1.23;;
24663;SDS011;12791;50.992;13.788;2022-08-01T00:36:59;2.05;;;1.33;;
24663;SDS011;12791;50.992;13.788;2022-08-01T00:39:26;1.38;;;1.38;;
24663;SDS011;12791;50.992;13.788;2022-08-01T00:41:52;1.73;;;1.38;;
24663;SDS011;12791;50.992;13.788;2022-08-01T00:44:19;1.45;;;1.35;;
24663;SDS011;12791;50.992;13.788;2022-08-01T00:46:46;1.40;;;1.30;;
24663;SDS011;12791;50.992;13.788;2022-08-01T00:49:12;1.50;;;1.50;;
24663;SDS011;12791;50.992;13.788;2022-08-01T00:51:40;1.40;;;1.30;;
24663;SDS011;12791;50.992;13.788;2022-08-01T00:54:07;1.33;;;1.23;;
24663;SDS011;12791;50.992;13.788;2022-08-01T00:56:34;1.48;;;1.20;;
24663;SDS011;12791;50.992;13.788;2022-08-01T00:59:00;1.40;;;1.35;;
24663;SDS011;12791;50.992;13.788;2022-08-01T01:01:30;1.50;;;1.15;;
24663;SDS011;12791;50.992;13.788;2022-08-01T01:03:57;1.48;;;1.42;;
24663;SDS011;12791;50.992;13.788;2022-08-01T01:06:26;1.52;;;1.42;;
24663;SDS011;12791;50.992;13.788;2022-08-01T01:09:02;1.77;;;1.67;;
24663;SDS011;12791;50.992;13.788;2022-08-01T01:11:39;1.90;;;1.80;;
24663;SDS011;12791;50.992;13.788;2022-08-01T01:14:13;1.58;;;1.48;;
24663;SDS011;12791;50.992;13.788;2022-08-01T01:16:48;1.80;;;1.70;;
24663;SDS011;12791;50.992;13.788;2022-08-01T01:19:20;1.83;;;1.60;;
24663;SDS011;12791;50.992;13.788;2022-08-01T01:22:00;1.35;;;1.25;;
24663;SDS011;12791;50.992;13.788;2022-08-01T01:24:45;1.38;;;1.38;;
24663;SDS011;12791;50.992;13.788;2022-08-01T01:27:24;2.17;;;1.33;;
24663;SDS011;12791;50.992;13.788;2022-08-01T01:30:03;1.50;;;1.40;;
24663;SDS011;12791;50.992;13.788;2022-08-01T01:32:31;2.13;;;1.50;;
24663;SDS011;12791;50.992;13.788;2022-08-01T01:35:02;1.50;;;1.50;;
24663;SDS011;12791;50.992;13.788;2022-08-01T01:37:33;1.90;;;1.80;;
24663;SDS011;12791;50.992;13.788;2022-08-01T01:40:02;1.63;;;1.52;;
24663;SDS011;12791;50.992;13.788;2022-08-01T01:42:31;1.75;;;1.65;;
24663;SDS011;12791;50.992;13.788;2022-08-01T01:44:59;1.60;;;1.50;;
24663;SDS011;12791;50.992;13.788;2022-08-01T01:47:29;3.00;;;1.67;;
24663;SDS011;12791;50.992;13.788;2022-08-01T01:49:58;1.85;;;1.33;;
24663;SDS011;12791;50.992;13.788;2022-08-01T01:52:28;1.73;;;1.63;;
24663;SDS011;12791;50.992;13.788;2022-08-01T01:54:57;2.05;;;1.63;;
24663;SDS011;12791;50.992;13.788;2022-08-01T01:57:25;3.20;;;1.90;;
24663;SDS011;12791;50.992;13.788;2022-08-01T01:59:54;1.23;;;1.17;;
24663;SDS011;12791;50.992;13.788;2022-08-01T02:02:21;1.40;;;1.30;;
24663;SDS011;12791;50.992;13.788;2022-08-01T02:04:51;1.50;;;1.40;;
24663;SDS011;12791;50.992;13.788;2022-08-01T02:07:20;1.58;;;1.45;;
24663;SDS011;12791;50.992;13.788;2022-08-01T02:09:50;1.30;;;1.20;;
24663;SDS011;12791;50.992;13.788;2022-08-01T02:12:18;1.50;;;1.40;;
24663;SDS011;12791;50.992;13.788;2022-08-01T02:14:46;1.30;;;1.20;;
24663;SDS011;12791;50.992;13.788;2022-08-01T02:17:16;1.40;;;1.30;;
24663;SDS011;12791;50.992;13.788;2022-08-01T02:19:44;2.00;;;1.90;;
24663;SDS011;12791;50.992;13.788;2022-08-01T02:22:14;1.88;;;1.65;;
24663;SDS011;12791;50.992;13.788;2022-08-01T02:24:48;1.58;;;1.48;;
24663;SDS011;12791;50.992;13.788;2022-08-01T02:27:20;1.52;;;1.30;;
24663;SDS011;12791;50.992;13.788;2022-08-01T02:29:52;1.52;;;1.42;;
24663;SDS011;12791;50.992;13.788;2022-08-01T02:32:23;1.60;;;1.50;;
24663;SDS011;12791;50.992;13.788;2022-08-01T02:34:52;1.80;;;1.55;;
24663;SDS011;12791;50.992;13.788;2022-08-01T02:37:24;1.35;;;1.30;;
24663;SDS011;12791;50.992;13.788;2022-08-01T02:39:54;1.45;;;1.40;;
24663;SDS011;12791;50.992;13.788;2022-08-01T02:42:23;1.60;;;1.50;;
24663;SDS011;12791;50.992;13.788;2022-08-01T02:44:52;1.95;;;1.33;;
24663;SDS011;12791;50.992;13.788;2022-08-01T02:47:20;1.60;;;1.50;;
24663;SDS011;12791;50.992;13.788;2022-08-01T02:49:49;2.08;;;1.38;;
24663;SDS011;12791;50.992;13.788;2022-08-01T02:52:18;1.52;;;1.40;;
24663;SDS011;12791;50.992;13.788;2022-08-01T02:54:49;1.10;;;1.10;;
24663;SDS011;12791;50.992;13.788;2022-08-01T02:57:19;1.70;;;1.60;;
24663;SDS011;12791;50.992;13.788;2022-08-01T02:59:47;1.77;;;1.67;;
24663;SDS011;12791;50.992;13.788;2022-08-01T03:02:16;1.95;;;1.85;;
24663;SDS011;12791;50.992;13.788;2022-08-01T03:04:44;1.90;;;1.80;;
24663;SDS011;12791;50.992;13.788;2022-08-01T03:07:11;1.70;;;1.60;;
24663;SDS011;12791;50.992;13.788;2022-08-01T03:09:40;2.72;;;1.70;;
24663;SDS011;12791;50.992;13.788;2022-08-01T03:12:11;2.88;;;1.85;;
24663;SDS011;12791;50.992;13.788;2022-08-01T03:14:41;1.95;;;1.85;;
24663;SDS011;12791;50.992;13.788;2022-08-01T03:17:10;1.55;;;1.45;;
24663;SDS011;12791;50.992;13.788;2022-08-01T03:19:37;2.10;;;2.00;;
24663;SDS011;12791;50.992;13.788;2022-08-01T03:22:05;1.45;;;1.35;;
24663;SDS011;12791;50.992;13.788;2022-08-01T03:24:34;1.65;;;1.55;;
24663;SDS011;12791;50.992;13.788;2022-08-01T03:27:02;2.17;;;1.98;;
24663;SDS011;12791;50.992;13.788;2022-08-01T03:29:31;2.10;;;1.90;;
24663;SDS011;12791;50.992;13.788;2022-08-01T03:31:59;1.80;;;1.70;;
24663;SDS011;12791;50.992;13.788;2022-08-01T03:34:27;3.28;;;2.10;;
24663;SDS011;12791;50.992;13.788;2022-08-01T03:36:55;1.70;;;1.60;;
24663;SDS011;12791;50.992;13.788;2022-08-01T03:39:27;1.75;;;1.70;;
24663;SDS011;12791;50.992;13.788;2022-08-01T03:41:57;1.75;;;1.65;;
24663;SDS011;12791;50.992;13.788;2022-08-01T03:44:27;1.73;;;1.60;;
24663;SDS011;12791;50.992;13.788;2022-08-01T03:46:58;1.63;;;1.52;;
24663;SDS011;12791;50.992;13.788;2022-08-01T03:49:30;1.38;;;1.35;;
24663;SDS011;12791;50.992;13.788;2022-08-01T03:51:59;1.80;;;1.70;;
24663;SDS011;12791;50.992;13.788;2022-08-01T03:54:29;1.45;;;1.45;;
24663;SDS011;12791;50.992;13.788;2022-08-01T03:56:58;1.60;;;1.50;;
24663;SDS011;12791;50.992;13.788;2022-08-01T03:59:26;3.50;;;1.85;;
24663;SDS011;12791;50.992;13.788;2022-08-01T04:01:54;1.88;;;1.77;;
24663;SDS011;12791;50.992;13.788;2022-08-01T04:04:23;1.55;;;1.45;;
24663;SDS011;12791;50.992;13.788;2022-08-01T04:06:50;1.67;;;1.58;;
24663;SDS011;12791;50.992;13.788;2022-08-01T04:09:18;1.65;;;1.65;;
24663;SDS011;12791;50.992;13.788;2022-08-01T04:11:46;1.48;;;1.45;;
24663;SDS011;12791;50.992;13.788;2022-08-01T04:14:13;1.77;;;1.67;;
24663;SDS011;12791;50.992;13.788;2022-08-01T04:16:39;1.38;;;1.30;;
24663;SDS011;12791;50.992;13.788;2022-08-01T04:19:06;1.50;;;1.40;;
24663;SDS011;12791;50.992;13.788;2022-08-01T04:21:34;1.92;;;1.83;;
24663;SDS011;12791;50.992;13.788;2022-08-01T04:24:03;1.90;;;1.80;;
24663;SDS011;12791;50.992;13.788;2022-08-01T04:26:36;2.13;;;1.98;;
24663;SDS011;12791;50.992;13.788;2022-08-01T04:29:05;1.75;;;1.65;;
24663;SDS011;12791;50.992;13.788;2022-08-01T04:31:34;1.90;;;1.80;;
24663;SDS011;12791;50.992;13.788;2022-08-01T04:34:02;1.45;;;1.45;;
24663;SDS011;12791;50.992;13.788;2022-08-01T04:36:32;1.85;;;1.50;;
24663;SDS011;12791;50.992;13.788;2022-08-01T04:39:02;1.83;;;1.73;;
24663;SDS011;12791;50.992;13.788;2022-08-01T04:41:30;1.83;;;1.73;;
24663;SDS011;12791;50.992;13.788;2022-08-01T04:43:58;1.98;;;1.88;;
24663;SDS011;12791;50.992;13.788;2022-08-01T04:46:26;1.92;;;1.83;;
24663;SDS011;12791;50.992;13.788;2022-08-01T04:48:54;1.80;;;1.70;;
24663;SDS011;12791;50.992;13.788;2022-08-01T04:51:21;2.03;;;1.92;;
24663;SDS011;12791;50.992;13.788;2022-08-01T04:53:49;2.47;;;2.33;;
24663;SDS011;12791;50.992;13.788;2022-08-01T04:56:16;2.22;;;2.13;;
24663;SDS011;12791;50.992;13.788;2022-08-01T04:58:43;2.63;;;2.25;;
24663;SDS011;12791;50.992;13.788;2022-08-01T05:01:10;2.00;;;1.90;;
24663;SDS011;12791;50.992;13.788;2022-08-01T05:03:37;1.77;;;1.60;;
24663;SDS011;12791;50.992;13.788;2022-08-01T05:06:04;1.85;;;1.70;;
24663;SDS011;12791;50.992;13.788;2022-08-01T05:08:31;1.60;;;1.60;;
24663;SDS011;12791;50.992;13.788;2022-08-01T05:10:59;2.00;;;1.90;;
24663;SDS011;12791;50.992;13.788;2022-08-01T05:13:26;1.67;;;1.58;;
24663;SDS011;12791;50.992;13.788;2022-08-01T05:15:52;1.75;;;1.75;;
24663;SDS011;12791;50.992;13.788;2022-08-01T05:18:19;1.73;;;1.63;;
24663;SDS011;12791;50.992;13.788;2022-08-01T05:20:46;3.08;;;2.00;;
24663;SDS011;12791;50.992;13.788;2022-08-01T05:23:13;1.63;;;1.52;;
24663;SDS011;12791;50.992;13.788;2022-08-01T05:25:39;2.13;;;1.73;;
24663;SDS011;12791;50.992;13.788;2022-08-01T05:28:07;2.30;;;2.08;;
24663;SDS011;12791;50.992;13.788;2022-08-01T05:30:34;3.70;;;2.60;;
24663;SDS011;12791;50.992;13.788;2022-08-01T05:33:01;1.67;;;1.67;;
24663;SDS011;12791;50.992;13.788;2022-08-01T05:35:27;2.15;;;2.00;;
24663;SDS011;12791;50.992;13.788;2022-08-01T05:37:54;2.05;;;1.95;;
24663;SDS011;12791;50.992;13.788;2022-08-01T05:40:21;1.80;;;1.70;;
24663;SDS011;12791;50.992;13.788;2022-08-01T05:42:47;1.90;;;1.80;;
24663;SDS011;12791;50.992;13.788;2022-08-01T05:45:15;1.50;;;1.40;;
24663;SDS011;12791;50.992;13.788;2022-08-01T05:47:42;1.58;;;1.50;;
24663;SDS011;12791;50.992;13.788;2022-08-01T05:50:09;1.23;;;1.23;;
24663;SDS011;12791;50.992;13.788;2022-08-01T05:52:35;2.45;;;1.60;;
24663;SDS011;12791;50.992;13.788;2022-08-01T05:55:02;1.65;;;1.55;;
24663;SDS011;12791;50.992;13.788;2022-08-01T05:57:30;1.52;;;1.42;;
24663;SDS011;12791;50.992;13.788;2022-08-01T05:59:56;1.40;;;1.38;;
24663;SDS011;12791;50.992;13.788;2022-08-01T06:02:24;1.65;;;1.33;;
24663;SDS011;12791;50.992;13.788;2022-08-01T06:04:52;4.55;;;1.70;;
24663;SDS011;12791;50.992;13.788;2022-08-01T06:07:19;1.77;;;1.67;;
24663;SDS011;12791;50.992;13.788;2022-08-01T06:09:45;1.63;;;1.52;;
24663;SDS011;12791;50.992;13.788;2022-08-01T06:12:12;1.77;;;1.67;;
24663;SDS011;12791;50.992;13.788;2022-08-01T06:14:39;2.72;;;2.00;;
24663;SDS011;12791;50.992;13.788;2022-08-01T06:17:05;2.05;;;1.95;;
24663;SDS011;12791;50.992;13.788;2022-08-01T06:19:33;1.77;;;1.67;;
24663;SDS011;12791;50.992;13.788;2022-08-01T06:22:00;2.10;;;2.00;;
24663;SDS011;12791;50.992;13.788;2022-08-01T06:24:26;1.70;;;1.60;;
24663;SDS011;12791;50.992;13.788;2022-08-01T06:26:53;1.85;;;1.75;;
24663;SDS011;12791;50.992;13.788;2022-08-01T06:29:20;2.40;;;2.20;;
24663;SDS011;12791;50.992;13.788;2022-08-01T06:31:46;2.28;;;1.50;;
24663;SDS011;12791;50.992;13.788;2022-08-01T06:34:13;2.65;;;1.88;;
24663;SDS011;12791;50.992;13.788;2022-08-01T06:36:41;1.73;;;1.60;;
24663;SDS011;12791;50.992;13.788;2022-08-01T06:39:08;1.83;;;1.80;;
24663;SDS011;12791;50.992;13.788;2022-08-01T06:41:35;1.50;;;1.40;;
24663;SDS011;12791;50.992;13.788;2022-08-01T06:44:01;1.70;;;1.60;;
24663;SDS011;12791;50.992;13.788;2022-08-01T06:46:29;2.28;;;1.90;;
24663;SDS011;12791;50.992;13.788;2022-08-01T06:48:55;2.00;;;1.90;;
24663;SDS011;12791;50.992;13.788;2022-08-01T06:51:22;2.00;;;1.90;;
24663;SDS011;12791;50.992;13.788;2022-08-01T06:53:50;1.90;;;1.80;;
24663;SDS011;12791;50.992;13.788;2022-08-01T06:56:18;1.75;;;1.65;;
24663;SDS011;12791;50.992;13.788;2022-08-01T06:58:45;2.58;;;2.05;;
24663;SDS011;12791;50.992;13.788;2022-08-01T07:01:11;2.58;;;2.40;;
24663;SDS011;12791;50.992;13.788;2022-08-01T07:03:38;2.70;;;2.58;;
24663;SDS011;12791;50.992;13.788;2022-08-01T07:06:05;2.35;;;2.25;;
24663;SDS011;12791;50.992;13.788;2022-08-01T07:08:31;2.10;;;2.00;;
24663;SDS011;12791;50.992;13.788;2022-08-01T07:10:59;2.40;;;2.20;;
24663;SDS011;12791;50.992;13.788;2022-08-01T07:13:26;2.25;;;2.15;;
24663;SDS011;12791;50.992;13.788;2022-08-01T07:15:55;2.65;;;2.55;;
24663;SDS011;12791;50.992;13.788;2022-08-01T07:18:23;3.25;;;2.95;;
24663;SDS011;12791;50.992;13.788;2022-08-01T07:20:49;2.53;;;2.33;;
24663;SDS011;12791;50.992;13.788;2022-08-01T07:23:16;3.20;;;3.00;;
24663;SDS011;12791;50.992;13.788;2022-08-01T07:25:43;3.38;;;3.17;;
24663;SDS011;12791;50.992;13.788;2022-08-01T07:28:11;3.90;;;3.60;;
24663;SDS011;12791;50.992;13.788;2022-08-01T07:30:38;4.00;;;3.72;;
24663;SDS011;12791;50.992;13.788;2022-08-01T07:33:07;3.70;;;3.50;;
24663;SDS011;12791;50.992;13.788;2022-08-01T07:35:34;4.10;;;3.72;;
24663;SDS011;12791;50.992;13.788;2022-08-01T07:38:03;3.15;;;2.97;;
24663;SDS011;12791;50.992;13.788;2022-08-01T07:40:29;3.28;;;3.08;;
24663;SDS011;12791;50.992;13.788;2022-08-01T07:42:56;3.42;;;3.17;;
24663;SDS011;12791;50.992;13.788;2022-08-01T07:45:24;4.28;;;3.90;;
24663;SDS011;12791;50.992;13.788;2022-08-01T07:47:52;3.08;;;2.50;;
24663;SDS011;12791;50.992;13.788;2022-08-01T07:50:19;4.53;;;3.03;;
24663;SDS011;12791;50.992;13.788;2022-08-01T07:52:46;2.83;;;2.60;;
24663;SDS011;12791;50.992;13.788;2022-08-01T07:55:12;3.15;;;2.90;;
24663;SDS011;12791;50.992;13.788;2022-08-01T07:57:39;2.90;;;2.50;;
24663;SDS011;12791;50.992;13.788;2022-08-01T08:00:06;2.67;;;2.55;;
24663;SDS011;12791;50.992;13.788;2022-08-01T08:02:35;3.05;;;2.85;;
24663;SDS011;12791;50.992;13.788;2022-08-01T08:05:02;2.13;;;1.98;;
24663;SDS011;12791;50.992;13.788;2022-08-01T08:07:29;2.17;;;2.05;;
24663;SDS011;12791;50.992;13.788;2022-08-01T08:09:56;2.22;;;2.13;;
24663;SDS011;12791;50.992;13.788;2022-08-01T08:12:23;1.80;;;1.80;;
24663;SDS011;12791;50.992;13.788;2022-08-01T08:14:50;1.60;;;1.50;;
24663;SDS011;12791;50.992;13.788;2022-08-01T08:17:16;1.88;;;1.77;;
24663;SDS011;12791;50.992;13.788;2022-08-01T08:19:44;1.63;;;1.52;;
24663;SDS011;12791;50.992;13.788;2022-08-01T08:22:11;1.55;;;1.55;;
24663;SDS011;12791;50.992;13.788;2022-08-01T08:24:37;1.48;;;1.38;;
24663;SDS011;12791;50.992;13.788;2022-08-01T08:27:04;1.70;;;1.60;;
24663;SDS011;12791;50.992;13.788;2022-08-01T08:29:32;1.48;;;1.38;;
24663;SDS011;12791;50.992;13.788;2022-08-01T08:31:59;1.20;;;1.20;;
24663;SDS011;12791;50.992;13.788;2022-08-01T08:34:26;2.35;;;1.20;;
24663;SDS011;12791;50.992;13.788;2022-08-01T08:36:55;0.95;;;0.95;;
24663;SDS011;12791;50.992;13.788;2022-08-01T08:39:23;0.85;;;0.85;;
24663;SDS011;12791;50.992;13.788;2022-08-01T08:41:49;2.80;;;0.90;;
24663;SDS011;12791;50.992;13.788;2022-08-01T08:44:17;0.82;;;0.82;;
24663;SDS011;12791;50.992;13.788;2022-08-01T08:46:45;1.23;;;1.20;;
24663;SDS011;12791;50.992;13.788;2022-08-01T08:49:15;0.98;;;0.98;;
24663;SDS011;12791;50.992;13.788;2022-08-01T08:51:44;0.90;;;0.90;;
24663;SDS011;12791;50.992;13.788;2022-08-01T08:54:16;0.85;;;0.85;;
24663;SDS011;12791;50.992;13.788;2022-08-01T08:56:44;0.93;;;0.93;;
24663;SDS011;12791;50.992;13.788;2022-08-01T08:59:13;0.85;;;0.85;;
24663;SDS011;12791;50.992;13.788;2022-08-01T09:01:40;0.85;;;0.85;;
24663;SDS011;12791;50.992;13.788;2022-08-01T09:04:07;0.90;;;0.90;;
24663;SDS011;12791;50.992;13.788;2022-08-01T09:06:34;1.00;;;1.00;;
24663;SDS011;12791;50.992;13.788;2022-08-01T09:09:01;1.80;;;0.80;;
24663;SDS011;12791;50.992;13.788;2022-08-01T09:11:29;1.20;;;0.90;;
24663;SDS011;12791;50.992;13.788;2022-08-01T09:14:03;0.70;;;0.70;;
24663;SDS011;12791;50.992;13.788;2022-08-01T09:16:32;0.60;;;0.60;;
24663;SDS011;12791;50.992;13.788;2022-08-01T09:19:09;0.63;;;0.63;;
24663;SDS011;12791;50.992;13.788;2022-08-01T09:21:37;0.68;;;0.68;;
24663;SDS011;12791;50.992;13.788;2022-08-01T09:24:12;1.02;;;0.80;;
24663;SDS011;12791;50.992;13.788;2022-08-01T09:26:41;0.80;;;0.75;;
24663;SDS011;12791;50.992;13.788;2022-08-01T09:29:16;0.90;;;0.90;;
24663;SDS011;12791;50.992;13.788;2022-08-01T09:31:45;1.30;;;1.20;;
24663;SDS011;12791;50.992;13.788;2022-08-01T09:34:12;1.55;;;1.55;;
24663;SDS011;12791;50.992;13.788;2022-08-01T09:36:43;1.40;;;1.40;;
24663;SDS011;12791;50.992;13.788;2022-08-01T09:39:21;1.58;;;1.48;;
24663;SDS011;12791;50.992;13.788;2022-08-01T09:41:51;1.40;;;1.30;;
24663;SDS011;12791;50.992;13.788;2022-08-01T09:44:18;1.42;;;1.42;;
24663;SDS011;12791;50.992;13.788;2022-08-01T09:46:50;1.60;;;1.60;;
24663;SDS011;12791;50.992;13.788;2022-08-01T09:49:28;1.45;;;1.38;;
24663;SDS011;12791;50.992;13.788;2022-08-01T09:51:56;1.48;;;1.48;;
24663;SDS011;12791;50.992;13.788;2022-08-01T09:54:28;1.40;;;1.10;;
24663;SDS011;12791;50.992;13.788;2022-08-01T09:57:08;1.10;;;1.10;;
24663;SDS011;12791;50.992;13.788;2022-08-01T09:59:36;1.05;;;1.05;;
24663;SDS011;12791;50.992;13.788;2022-08-01T10:02:06;1.00;;;1.00;;
24663;SDS011;12791;50.992;13.788;2022-08-01T10:04:35;0.88;;;0.88;;
24663;SDS011;12791;50.992;13.788;2022-08-01T10:07:03;1.00;;;1.00;;
24663;SDS011;12791;50.992;13.788;2022-08-01T10:09:32;2.05;;;1.10;;
24663;SDS011;12791;50.992;13.788;2022-08-01T10:12:00;1.02;;;0.90;;
24663;SDS011;12791;50.992;13.788;2022-08-01T10:14:29;0.80;;;0.80;;
24663;SDS011;12791;50.992;13.788;2022-08-01T10:16:57;0.75;;;0.75;;
24663;SDS011;12791;50.992;13.788;2022-08-01T10:19:26;0.70;;;0.70;;
24663;SDS011;12791;50.992;13.788;2022-08-01T10:21:54;0.63;;;0.63;;
24663;SDS011;12791;50.992;13.788;2022-08-01T10:24:22;1.20;;;0.60;;
24663;SDS011;12791;50.992;13.788;2022-08-01T10:26:51;0.70;;;0.70;;
24663;SDS011;12791;50.992;13.788;2022-08-01T10:29:20;0.50;;;0.50;;
24663;SDS011;12791;50.992;13.788;2022-08-01T10:31:49;2.20;;;0.70;;
24663;SDS011;12791;50.992;13.788;2022-08-01T10:34:17;0.60;;;0.60;;
24663;SDS011;12791;50.992;13.788;2022-08-01T10:36:45;0.47;;;0.47;;
24663;SDS011;12791;50.992;13.788;2022-08-01T10:39:13;0.60;;;0.60;;
24663;SDS011;12791;50.992;13.788;2022-08-01T10:41:40;0.50;;;0.50;;
24663;SDS011;12791;50.992;13.788;2022-08-01T10:44:07;1.15;;;0.50;;
24663;SDS011;12791;50.992;13.788;2022-08-01T10:46:36;1.15;;;0.50;;
24663;SDS011;12791;50.992;13.788;2022-08-01T10:49:08;0.90;;;0.50;;
24663;SDS011;12791;50.992;13.788;2022-08-01T10:51:38;0.40;;;0.40;;
24663;SDS011;12791;50.992;13.788;2022-08-01T10:54:06;1.00;;;0.40;;
24663;SDS011;12791;50.992;13.788;2022-08-01T10:56:42;0.47;;;0.45;;
24663;SDS011;12791;50.992;13.788;2022-08-01T10:59:10;0.50;;;0.50;;
24663;SDS011;12791;50.992;13.788;2022-08-01T11:01:41;0.50;;;0.50;;
24663;SDS011;12791;50.992;13.788;2022-08-01T11:04:10;0.43;;;0.43;;
24663;SDS011;12791;50.992;13.788;2022-08-01T11:06:40;0.60;;;0.60;;
24663;SDS011;12791;50.992;13.788;2022-08-01T11:09:27;0.40;;;0.40;;
24663;SDS011;12791;50.992;13.788;2022-08-01T11:12:02;0.30;;;0.30;;
24663;SDS011;12791;50.992;13.788;2022-08-01T11:14:32;0.30;;;0.30;;
24663;SDS011;12791;50.992;13.788;2022-08-01T11:20:10;1.05;;;0.47;;
24663;SDS011;12791;50.992;13.788;2022-08-01T11:26:10;0.20;;;0.20;;
24663;SDS011;12791;50.992;13.788;2022-08-01T11:28:38;1.10;;;0.40;;
24663;SDS011;12791;50.992;13.788;2022-08-01T11:33:51;0.20;;;0.20;;
24663;SDS011;12791;50.992;13.788;2022-08-01T11:36:19;0.63;;;0.20;;
24663;SDS011;12791;50.992;13.788;2022-08-01T11:38:46;1.38;;;0.20;;
24663;SDS011;12791;50.992;13.788;2022-08-01T11:41:15;0.22;;;0.20;;
24663;SDS011;12791;50.992;13.788;2022-08-01T11:43:54;0.20;;;0.20;;
24663;SDS011;12791;50.992;13.788;2022-08-01T11:49:28;1.98;;;0.40;;
24663;SDS011;12791;50.992;13.788;2022-08-01T11:52:01;2.83;;;0.40;;
24663;SDS011;12791;50.992;13.788;2022-08-01T11:54:30;1.08;;;0.45;;
24663;SDS011;12791;50.992;13.788;2022-08-01T11:56:59;0.50;;;0.50;;
24663;SDS011;12791;50.992;13.788;2022-08-01T11:59:27;1.10;;;0.40;;
24663;SDS011;12791;50.992;13.788;2022-08-01T12:01:54;2.83;;;0.50;;
24663;SDS011;12791;50.992;13.788;2022-08-01T12:04:20;0.30;;;0.30;;
24663;SDS011;12791;50.992;13.788;2022-08-01T12:06:47;0.77;;;0.22;;
24663;SDS011;12791;50.992;13.788;2022-08-01T12:09:16;0.77;;;0.30;;
24663;SDS011;12791;50.992;13.788;2022-08-01T12:11:45;0.57;;;0.30;;
24663;SDS011;12791;50.992;13.788;2022-08-01T12:14:15;1.30;;;0.28;;
24663;SDS011;12791;50.992;13.788;2022-08-01T12:16:52;0.30;;;0.30;;
24663;SDS011;12791;50.992;13.788;2022-08-01T12:19:20;2.38;;;0.50;;
24663;SDS011;12791;50.992;13.788;2022-08-01T12:22:04;2.53;;;0.40;;
24663;SDS011;12791;50.992;13.788;2022-08-01T12:24:37;0.75;;;0.40;;
24663;SDS011;12791;50.992;13.788;2022-08-01T12:27:06;3.28;;;0.40;;
24663;SDS011;12791;50.992;13.788;2022-08-01T12:29:34;0.40;;;0.40;;
24663;SDS011;12791;50.992;13.788;2022-08-01T12:32:03;0.68;;;0.47;;
24663;SDS011;12791;50.992;13.788;2022-08-01T12:34:30;2.42;;;0.40;;
24663;SDS011;12791;50.992;13.788;2022-08-01T12:36:59;3.55;;;0.50;;
24663;SDS011;12791;50.992;13.788;2022-08-01T12:39:31;0.75;;;0.50;;
24663;SDS011;12791;50.992;13.788;2022-08-01T12:42:00;0.55;;;0.50;;
24663;SDS011;12791;50.992;13.788;2022-08-01T12:44:31;2.45;;;0.60;;
24663;SDS011;12791;50.992;13.788;2022-08-01T12:46:58;0.50;;;0.50;;
24663;SDS011;12791;50.992;13.788;2022-08-01T12:49:26;0.85;;;0.40;;
24663;SDS011;12791;50.992;13.788;2022-08-01T12:51:53;2.15;;;0.40;;
24663;SDS011;12791;50.992;13.788;2022-08-01T12:54:20;1.38;;;0.40;;
24663;SDS011;12791;50.992;13.788;2022-08-01T12:56:49;1.15;;;0.50;;
24663;SDS011;12791;50.992;13.788;2022-08-01T12:59:23;1.00;;;0.30;;
24663;SDS011;12791;50.992;13.788;2022-08-01T13:01:51;0.30;;;0.30;;
24663;SDS011;12791;50.992;13.788;2022-08-01T13:04:18;0.57;;;0.38;;
24663;SDS011;12791;50.992;13.788;2022-08-01T13:06:45;0.77;;;0.40;;
24663;SDS011;12791;50.992;13.788;2022-08-01T13:09:12;4.22;;;0.40;;
24663;SDS011;12791;50.992;13.788;2022-08-01T13:11:39;0.30;;;0.30;;
24663;SDS011;12791;50.992;13.788;2022-08-01T13:14:06;0.55;;;0.35;;
24663;SDS011;12791;50.992;13.788;2022-08-01T13:16:45;1.17;;;0.40;;
24663;SDS011;12791;50.992;13.788;2022-08-01T13:19:12;0.40;;;0.40;;
24663;SDS011;12791;50.992;13.788;2022-08-01T13:21:39;0.40;;;0.40;;
24663;SDS011;12791;50.992;13.788;2022-08-01T13:24:22;2.47;;;0.40;;
24663;SDS011;12791;50.992;13.788;2022-08-01T13:26:51;1.55;;;0.40;;
24663;SDS011;12791;50.992;13.788;2022-08-01T13:29:21;0.73;;;0.30;;
24663;SDS011;12791;50.992;13.788;2022-08-01T13:31:56;0.20;;;0.20;;
24663;SDS011;12791;50.992;13.788;2022-08-01T13:34:29;0.32;;;0.32;;
24663;SDS011;12791;50.992;13.788;2022-08-01T13:36:56;0.35;;;0.20;;
24663;SDS011;12791;50.992;13.788;2022-08-01T13:39:23;0.20;;;0.20;;
24663;SDS011;12791;50.992;13.788;2022-08-01T13:42:09;1.00;;;0.20;;
24663;SDS011;12791;50.992;13.788;2022-08-01T13:44:37;0.20;;;0.20;;
24663;SDS011;12791;50.992;13.788;2022-08-01T13:47:05;1.10;;;0.20;;
24663;SDS011;12791;50.992;13.788;2022-08-01T13:49:32;0.75;;;0.20;;
24663;SDS011;12791;50.992;13.788;2022-08-01T13:52:00;1.30;;;0.20;;
24663;SDS011;12791;50.992;13.788;2022-08-01T13:54:27;1.35;;;0.20;;
24663;SDS011;12791;50.992;13.788;2022-08-01T13:56:53;1.10;;;0.10;;
24663;SDS011;12791;50.992;13.788;2022-08-01T13:59:21;1.85;;;0.20;;
24663;SDS011;12791;50.992;13.788;2022-08-01T14:01:47;0.98;;;0.20;;
24663;SDS011;12791;50.992;13.788;2022-08-01T14:04:15;1.20;;;0.40;;
24663;SDS011;12791;50.992;13.788;2022-08-01T14:06:43;0.20;;;0.20;;
24663;SDS011;12791;50.992;13.788;2022-08-01T14:09:10;0.82;;;0.20;;
24663;SDS011;12791;50.992;13.788;2022-08-01T14:11:37;1.00;;;0.20;;
24663;SDS011;12791;50.992;13.788;2022-08-01T14:14:04;1.92;;;0.25;;
24663;SDS011;12791;50.992;13.788;2022-08-01T14:16:30;0.20;;;0.20;;
24663;SDS011;12791;50.992;13.788;2022-08-01T14:18:57;0.73;;;0.25;;
24663;SDS011;12791;50.992;13.788;2022-08-01T14:21:25;0.22;;;0.22;;
24663;SDS011;12791;50.992;13.788;2022-08-01T14:23:52;0.80;;;0.30;;
24663;SDS011;12791;50.992;13.788;2022-08-01T14:26:18;0.98;;;0.40;;
24663;SDS011;12791;50.992;13.788;2022-08-01T14:28:45;0.35;;;0.30;;
24663;SDS011;12791;50.992;13.788;2022-08-01T14:31:11;0.52;;;0.30;;
24663;SDS011;12791;50.992;13.788;2022-08-01T14:33:38;0.32;;;0.30;;
24663;SDS011;12791;50.992;13.788;2022-08-01T14:36:05;0.82;;;0.30;;
24663;SDS011;12791;50.992;13.788;2022-08-01T14:38:33;0.40;;;0.40;;
24663;SDS011;12791;50.992;13.788;2022-08-01T14:41:00;0.40;;;0.40;;
24663;SDS011;12791;50.992;13.788;2022-08-01T14:43:28;0.30;;;0.30;;
24663;SDS011;12791;50.992;13.788;2022-08-01T14:45:56;0.63;;;0.40;;
24663;SDS011;12791;50.992;13.788;2022-08-01T14:48:23;0.40;;;0.35;;
24663;SDS011;12791;50.992;13.788;2022-08-01T14:50:49;0.80;;;0.80;;
24663;SDS011;12791;50.992;13.788;2022-08-01T14:53:16;1.00;;;1.00;;